createdAt,value
2019-04-25T00:00:38.228Z,0.00
2019-04-25T00:01:38.354Z,0.00
2019-04-25T00:02:38.299Z,0.00
2019-04-25T00:03:38.398Z,0.00
2019-04-25T00:04:38.748Z,0.00
2019-04-25T00:05:38.758Z,0.00
2019-04-25T00:06:38.619Z,0.00
2019-04-25T00:07:38.722Z,0.00
2019-04-25T00:08:38.783Z,0.00
2019-04-25T00:09:38.943Z,0.00
2019-04-25T00:10:38.027Z,0.00
2019-04-25T00:11:38.002Z,0.00
2019-04-25T00:12:37.981Z,0.00
2019-04-25T00:13:38.017Z,0.00
2019-04-25T00:14:38.076Z,0.00
2019-04-25T00:15:38.291Z,0.00
2019-04-25T00:16:38.702Z,0.00
2019-04-25T00:17:38.580Z,0.00
2019-04-25T00:18:38.648Z,0.00
2019-04-25T00:19:38.651Z,0.00
2019-04-25T00:20:38.812Z,0.00
2019-04-25T00:21:38.235Z,0.00
2019-04-25T00:22:39.194Z,0.00
2019-04-25T00:23:37.751Z,0.00
2019-04-25T00:24:37.735Z,0.00
2019-04-25T00:25:37.724Z,0.00
2019-04-25T00:26:37.690Z,0.00
2019-04-25T00:27:37.670Z,0.00
2019-04-25T00:28:37.650Z,0.00
2019-04-25T00:29:37.630Z,0.00
2019-04-25T00:30:37.629Z,0.00
2019-04-25T00:31:37.594Z,0.00
2019-04-25T00:32:37.571Z,0.00
2019-04-25T00:33:37.551Z,0.00
2019-04-25T00:34:37.538Z,0.00
2019-04-25T00:35:37.512Z,0.00
2019-04-25T00:36:39.042Z,0.00
2019-04-25T00:37:37.470Z,0.00
2019-04-25T00:38:37.447Z,0.00
2019-04-25T00:39:37.427Z,0.00
2019-04-25T00:40:37.407Z,0.00
2019-04-25T00:41:37.402Z,0.00
2019-04-25T00:42:37.367Z,0.00
2019-04-25T00:43:37.349Z,0.00
2019-04-25T00:44:37.331Z,0.00
2019-04-25T00:45:37.307Z,0.00
2019-04-25T00:46:37.301Z,0.00
2019-04-25T00:47:37.265Z,0.00
2019-04-25T00:48:37.244Z,0.00
2019-04-25T00:49:37.226Z,0.00
2019-04-25T00:50:37.206Z,0.00
2019-04-25T00:51:37.199Z,0.00
2019-04-25T00:52:37.166Z,0.00
2019-04-25T00:53:37.146Z,0.00
2019-04-25T00:54:37.125Z,0.00
2019-04-25T00:55:37.104Z,0.00
2019-04-25T00:56:37.101Z,0.00
2019-04-25T00:57:37.067Z,0.00
2019-04-25T00:58:37.045Z,0.00
2019-04-25T00:59:37.023Z,0.00
2019-04-25T01:00:37.001Z,0.00
2019-04-25T01:01:36.984Z,0.00
2019-04-25T01:02:36.974Z,0.00
2019-04-25T01:03:36.939Z,0.00
2019-04-25T01:04:36.942Z,0.00
2019-04-25T01:05:36.902Z,0.00
2019-04-25T01:06:36.879Z,0.00
2019-04-25T01:07:36.875Z,0.00
2019-04-25T01:08:36.844Z,0.00
2019-04-25T01:09:36.819Z,0.00
2019-04-25T01:10:36.797Z,0.00
2019-04-25T01:11:36.778Z,0.00
2019-04-25T01:12:36.763Z,0.00
2019-04-25T01:13:36.768Z,0.00
2019-04-25T01:14:36.717Z,0.00
2019-04-25T01:15:36.695Z,0.00
2019-04-25T01:16:36.676Z,0.00
2019-04-25T01:17:36.662Z,0.00
2019-04-25T01:18:37.468Z,0.00
2019-04-25T01:19:36.616Z,0.00
2019-04-25T01:20:36.594Z,0.00
2019-04-25T01:21:36.577Z,0.00
2019-04-25T01:22:36.554Z,0.00
2019-04-25T01:23:36.552Z,0.00
2019-04-25T01:24:36.513Z,0.00
2019-04-25T01:25:41.001Z,0.00
2019-04-25T01:26:36.474Z,0.00
2019-04-25T01:27:36.450Z,0.00
2019-04-25T01:28:36.448Z,0.00
2019-04-25T01:29:36.413Z,0.00
2019-04-25T01:30:36.393Z,0.00
2019-04-25T01:31:36.371Z,0.00
2019-04-25T06:14:25.145Z,382.50
2019-04-25T06:15:24.996Z,393.75
2019-04-25T06:16:27.038Z,405.00
2019-04-25T06:17:24.801Z,416.25
2019-04-25T06:18:24.844Z,433.13
2019-04-25T06:19:25.259Z,444.38
2019-04-25T06:20:24.693Z,461.25
2019-04-25T06:21:24.591Z,466.88
2019-04-25T06:22:24.661Z,478.13
2019-04-25T06:23:24.583Z,489.38
2019-04-25T06:24:25.540Z,506.25
2019-04-25T06:25:29.313Z,517.50
2019-04-25T06:26:34.106Z,523.13
2019-04-25T06:27:24.346Z,528.75
2019-04-25T06:28:24.008Z,540.00
2019-04-25T06:29:24.528Z,551.25
2019-04-25T06:30:24.888Z,562.50
2019-04-25T06:31:26.227Z,568.13
2019-04-25T06:32:24.969Z,579.38
2019-04-25T06:33:24.687Z,590.63
2019-04-25T06:34:25.407Z,596.25
2019-04-25T06:35:25.190Z,601.88
2019-04-25T06:36:24.562Z,596.25
2019-04-25T06:37:24.903Z,590.63
2019-04-25T06:38:26.879Z,585.00
2019-04-25T06:39:24.405Z,596.25
2019-04-25T06:40:24.170Z,585.00
2019-04-25T06:41:25.620Z,579.38
2019-04-25T06:42:24.795Z,551.25
2019-04-25T06:43:24.626Z,534.38
2019-04-25T06:44:24.358Z,523.13
2019-04-25T06:45:25.237Z,511.88
2019-04-25T06:46:24.816Z,511.88
2019-04-25T06:47:24.809Z,500.63
2019-04-25T06:48:25.023Z,506.25
2019-04-25T06:49:25.483Z,495.00
2019-04-25T06:50:24.864Z,489.38
2019-04-25T06:51:25.602Z,466.88
2019-04-25T06:52:27.722Z,461.25
2019-04-25T06:53:25.644Z,466.88
2019-04-25T06:54:25.383Z,478.13
2019-04-25T06:55:25.872Z,489.38
2019-04-25T06:56:24.970Z,478.13
2019-04-25T06:57:24.445Z,472.50
2019-04-25T06:58:25.649Z,455.63
2019-04-25T06:59:25.919Z,461.25
2019-04-25T07:00:24.942Z,455.63
2019-04-25T07:01:25.127Z,472.50
2019-04-25T07:02:25.362Z,500.63
2019-04-25T07:03:24.879Z,506.25
2019-04-25T07:04:25.476Z,478.13
2019-04-25T07:05:30.987Z,466.88
2019-04-25T07:06:24.850Z,478.13
2019-04-25T07:07:24.500Z,506.25
2019-04-25T07:08:25.415Z,517.50
2019-04-25T07:09:24.431Z,517.50
2019-04-25T07:10:24.159Z,523.13
2019-04-25T07:11:24.867Z,523.13
2019-04-25T07:12:26.566Z,528.75
2019-04-25T07:13:24.705Z,573.75
2019-04-25T07:14:25.488Z,601.88
2019-04-25T07:15:26.586Z,635.63
2019-04-25T07:16:24.062Z,669.38
2019-04-25T07:17:24.210Z,680.63
2019-04-25T07:18:24.797Z,708.75
2019-04-25T07:19:26.635Z,703.13
2019-04-25T07:20:24.881Z,703.13
2019-04-25T07:21:24.028Z,708.75
2019-04-25T07:22:23.914Z,725.63
2019-04-25T07:23:23.670Z,697.50
2019-04-25T07:24:24.830Z,669.38
2019-04-25T07:25:24.986Z,641.25
2019-04-25T07:26:24.153Z,618.75
2019-04-25T07:27:24.560Z,596.25
2019-04-25T07:28:27.142Z,568.13
2019-04-25T07:29:24.791Z,551.25
2019-04-25T07:35:20.715Z,523.13
2019-04-25T07:36:20.918Z,523.13
2019-04-25T07:37:20.137Z,534.38
2019-04-25T07:38:20.070Z,534.38
2019-04-25T07:39:20.078Z,534.38
2019-04-25T07:40:20.715Z,551.25
2019-04-25T07:41:20.031Z,596.25
2019-04-25T07:42:20.042Z,630.00
2019-04-25T07:43:20.007Z,641.25
2019-04-25T07:44:28.484Z,646.88
2019-04-25T07:45:19.990Z,646.88
2019-04-25T07:46:23.719Z,635.63
2019-04-25T07:47:19.968Z,641.25
2019-04-25T07:48:22.609Z,658.13
2019-04-25T07:49:19.931Z,669.38
2019-04-25T07:50:19.990Z,686.25
2019-04-25T07:51:19.894Z,686.25
2019-04-25T07:52:19.909Z,669.38
2019-04-25T07:53:19.875Z,663.75
2019-04-25T07:54:19.870Z,652.50
2019-04-25T07:55:19.827Z,641.25
2019-04-25T07:56:19.794Z,641.25
2019-04-25T07:57:19.761Z,618.75
2019-04-25T08:07:46.815Z,382.50
2019-04-25T08:08:46.813Z,405.00
2019-04-25T08:09:50.569Z,433.13
2019-04-25T08:10:46.760Z,438.75
2019-04-25T08:11:46.759Z,433.13
2019-04-25T08:12:47.490Z,416.25
2019-04-25T08:17:38.209Z,585.00
2019-04-25T08:18:37.035Z,703.13
2019-04-25T08:19:37.180Z,776.25
2019-04-25T08:20:37.076Z,849.38
2019-04-25T08:21:36.737Z,866.25
2019-04-25T08:22:50.156Z,838.13
2019-04-25T08:23:37.943Z,793.13
2019-04-25T08:24:37.218Z,793.13
2019-04-25T08:25:39.262Z,781.88
2019-04-25T08:26:37.522Z,787.50
2019-04-25T08:27:36.760Z,736.88
2019-04-25T08:28:50.174Z,680.63
2019-04-25T08:29:39.408Z,624.38
2019-04-25T08:30:36.961Z,635.63
2019-04-25T08:31:37.658Z,658.13
2019-04-25T08:32:37.591Z,714.38
2019-04-25T08:33:36.912Z,804.38
2019-04-25T08:34:37.300Z,871.88
2019-04-25T08:35:36.622Z,950.63
2019-04-25T08:36:38.439Z,1012.50
2019-04-25T08:37:36.652Z,1035.00
2019-04-25T08:38:36.437Z,1040.63
2019-04-25T08:39:38.083Z,1029.38
2019-04-25T08:40:37.757Z,1080.00
2019-04-25T08:41:37.015Z,1113.75
2019-04-25T08:42:36.808Z,1153.13
2019-04-25T08:43:39.095Z,1181.25
2019-04-25T08:44:36.947Z,1158.75
2019-04-25T08:45:37.396Z,1119.38
2019-04-25T08:46:37.268Z,1046.25
2019-04-25T08:47:37.309Z,1001.25
2019-04-25T08:48:37.033Z,945.00
2019-04-25T08:49:36.959Z,939.38
2019-04-25T08:50:39.294Z,911.25
2019-04-25T08:51:36.315Z,798.75
2019-04-25T08:52:36.412Z,748.13
2019-04-25T08:53:36.604Z,725.63
2019-04-25T08:54:40.707Z,714.38
2019-04-25T08:55:37.008Z,776.25
2019-04-25T08:56:36.467Z,843.75
2019-04-25T08:57:36.277Z,866.25
2019-04-25T08:58:36.541Z,877.50
2019-04-25T08:59:42.544Z,860.63
2019-04-25T09:00:36.961Z,838.13
2019-04-25T09:01:37.937Z,793.13
2019-04-25T09:02:37.545Z,798.75
2019-04-25T09:03:37.930Z,849.38
2019-04-25T09:04:36.893Z,866.25
2019-04-25T09:05:37.376Z,815.63
2019-04-25T09:06:37.274Z,798.75
2019-04-25T09:07:37.730Z,810.00
2019-04-25T09:08:38.098Z,798.75
2019-04-25T09:09:37.608Z,731.25
2019-04-25T09:10:38.401Z,708.75
2019-04-25T09:11:37.976Z,697.50
2019-04-25T09:12:36.562Z,686.25
2019-04-25T09:13:37.402Z,675.00
2019-04-25T09:14:36.819Z,641.25
2019-04-25T09:15:36.986Z,613.13
2019-04-25T09:16:36.691Z,658.13
2019-04-25T09:17:37.195Z,708.75
2019-04-25T09:18:36.975Z,714.38
2019-04-25T09:19:37.527Z,725.63
2019-04-25T09:20:39.168Z,720.00
2019-04-25T09:21:36.583Z,691.88
2019-04-25T09:22:37.424Z,720.00
2019-04-25T09:23:36.529Z,770.63
2019-04-25T09:24:36.840Z,804.38
2019-04-25T09:25:36.704Z,815.63
2019-04-25T09:26:36.898Z,849.38
2019-04-25T09:27:39.149Z,855.00
2019-04-25T09:28:38.032Z,815.63
2019-04-25T09:29:36.706Z,742.50
2019-04-25T09:30:36.857Z,675.00
2019-04-25T09:31:37.516Z,658.13
2019-04-25T09:32:35.867Z,748.13
2019-04-25T09:33:36.375Z,855.00
2019-04-25T09:34:35.787Z,956.25
2019-04-25T09:35:36.657Z,990.00
2019-04-25T09:36:36.386Z,1035.00
2019-04-25T09:37:36.653Z,1074.38
2019-04-25T09:38:36.087Z,1096.88
2019-04-25T09:39:36.868Z,1119.38
2019-04-25T09:40:36.138Z,1153.13
2019-04-25T09:41:37.851Z,1164.38
2019-04-25T09:42:35.709Z,1198.13
2019-04-25T09:43:37.303Z,1186.88
2019-04-25T09:44:38.016Z,1203.75
2019-04-25T09:45:36.129Z,1237.50
2019-04-25T09:46:36.291Z,1271.25
2019-04-25T09:47:35.782Z,1209.38
2019-04-25T09:48:36.303Z,1192.50
2019-04-25T09:49:35.571Z,1113.75
2019-04-25T09:50:35.654Z,1023.75
2019-04-25T09:51:36.028Z,990.00
2019-04-25T09:52:36.100Z,967.50
2019-04-25T09:53:40.065Z,984.38
2019-04-25T09:54:36.323Z,956.25
2019-04-25T09:55:37.545Z,973.13
2019-04-25T09:56:36.558Z,1046.25
2019-04-25T09:57:36.337Z,1023.75
2019-04-25T09:58:36.574Z,1040.63
2019-04-25T09:59:37.387Z,950.63
2019-04-25T10:00:36.506Z,838.13
2019-04-25T10:01:36.504Z,736.88
2019-04-25T10:02:35.896Z,635.63
2019-04-25T10:03:36.556Z,641.25
2019-04-25T10:04:35.906Z,646.88
2019-04-25T10:05:38.355Z,736.88
2019-04-25T10:06:35.402Z,860.63
2019-04-25T10:07:37.239Z,950.63
2019-04-25T10:08:36.870Z,871.88
2019-04-25T10:09:35.337Z,843.75
2019-04-25T10:10:36.204Z,781.88
2019-04-25T10:11:39.971Z,658.13
2019-04-25T10:12:37.238Z,540.00
2019-04-25T10:13:35.384Z,495.00
2019-04-25T10:14:36.758Z,478.13
2019-04-25T10:15:37.449Z,466.88
2019-04-25T10:16:35.907Z,461.25
2019-04-25T10:17:37.591Z,455.63
2019-04-25T10:18:37.006Z,393.75
2019-04-25T10:19:36.952Z,433.13
2019-04-25T10:20:37.551Z,478.13
2019-04-25T10:21:37.934Z,489.38
2019-04-25T10:22:35.897Z,545.63
2019-04-25T10:23:35.075Z,472.50
2019-04-25T10:24:35.031Z,427.50
2019-04-25T10:32:38.509Z,613.13
2019-04-25T10:33:38.717Z,720.00
2019-04-25T10:34:37.868Z,652.50
2019-04-25T10:35:48.068Z,624.38
2019-04-25T10:36:39.853Z,601.88
2019-04-25T10:37:37.856Z,652.50
2019-04-25T10:38:39.329Z,613.13
2019-04-25T10:39:39.173Z,675.00
2019-04-25T10:40:38.483Z,641.25
2019-04-25T10:41:39.697Z,590.63
2019-04-25T10:42:38.898Z,624.38
2019-04-25T10:43:37.820Z,635.63
2019-04-25T10:44:37.801Z,669.38
2019-04-25T10:45:38.476Z,663.75
2019-04-25T10:46:37.863Z,680.63
2019-04-25T10:47:40.073Z,781.88
2019-04-25T10:48:39.902Z,888.75
2019-04-25T10:49:39.846Z,900.00
2019-04-25T10:50:40.002Z,793.13
2019-04-25T10:51:38.632Z,630.00
2019-04-25T10:52:44.499Z,562.50
2019-04-25T10:53:37.753Z,506.25
2019-04-25T10:54:37.657Z,478.13
2019-04-25T10:55:37.620Z,483.75
2019-04-25T11:02:43.204Z,618.75
2019-04-25T11:03:42.697Z,675.00
2019-04-25T11:04:42.223Z,708.75
2019-04-25T11:05:45.196Z,793.13
2019-04-25T11:06:45.399Z,821.25
2019-04-25T11:07:42.787Z,866.25
2019-04-25T11:08:43.723Z,832.50
2019-04-25T11:09:44.954Z,804.38
2019-04-25T11:10:50.002Z,731.25
2019-04-25T11:11:42.002Z,714.38
2019-04-25T11:12:42.833Z,810.00
2019-04-25T11:13:41.979Z,911.25
2019-04-25T11:14:42.217Z,922.50
2019-04-25T11:15:42.774Z,1068.75
2019-04-25T11:16:42.854Z,1091.25
2019-04-25T11:17:42.606Z,1096.88
2019-04-25T11:18:43.497Z,1141.88
2019-04-25T11:19:44.025Z,1108.13
2019-04-25T11:20:43.077Z,1018.13
2019-04-25T11:21:42.709Z,905.63
2019-04-25T11:22:43.474Z,832.50
2019-04-25T11:23:44.266Z,826.88
2019-04-25T11:24:42.382Z,810.00
2019-04-25T11:25:42.952Z,832.50
2019-04-25T11:26:42.823Z,866.25
2019-04-25T11:27:43.743Z,916.88
2019-04-25T11:28:42.671Z,967.50
2019-04-25T11:29:42.511Z,978.75
2019-04-25T11:30:43.581Z,1023.75
2019-04-25T11:31:41.765Z,1068.75
2019-04-25T11:32:42.166Z,1068.75
2019-04-25T11:33:41.744Z,1046.25
2019-04-25T11:34:43.381Z,1006.88
2019-04-25T11:35:41.720Z,973.13
2019-04-25T11:36:41.713Z,945.00
2019-04-25T11:37:43.111Z,928.13
2019-04-25T11:38:41.685Z,916.88
2019-04-25T11:39:42.672Z,894.38
2019-04-25T11:40:43.628Z,871.88
2019-04-25T11:41:41.655Z,843.75
2019-04-25T11:42:41.864Z,843.75
2019-04-25T11:43:43.501Z,860.63
2019-04-25T11:44:42.814Z,866.25
2019-04-25T11:45:41.607Z,860.63
2019-04-25T11:46:43.445Z,860.63
2019-04-25T11:47:41.581Z,843.75
2019-04-25T11:48:43.249Z,843.75
2019-04-25T11:49:42.283Z,888.75
2019-04-25T11:50:44.065Z,900.00
2019-04-25T11:51:41.817Z,939.38
2019-04-25T11:52:41.526Z,990.00
2019-04-25T11:53:41.514Z,1040.63
2019-04-25T11:54:41.505Z,1113.75
2019-04-25T11:55:41.510Z,1175.63
2019-04-25T11:56:42.671Z,1260.00
2019-04-25T11:57:43.929Z,1293.75
2019-04-25T11:58:43.490Z,1254.38
2019-04-25T11:59:42.003Z,1175.63
2019-04-25T12:00:42.073Z,1046.25
2019-04-25T12:01:42.530Z,984.38
2019-04-25T12:02:41.411Z,956.25
2019-04-25T12:03:41.399Z,973.13
2019-04-25T12:04:42.678Z,967.50
2019-04-25T12:05:42.956Z,922.50
2019-04-25T12:06:41.366Z,905.63
2019-04-25T12:07:41.355Z,883.13
2019-04-25T12:08:41.343Z,900.00
2019-04-25T12:09:41.336Z,933.75
2019-04-25T12:10:41.334Z,995.63
2019-04-25T12:11:41.311Z,1012.50
2019-04-25T12:12:41.299Z,984.38
2019-04-25T12:13:41.288Z,922.50
2019-04-25T12:14:41.278Z,905.63
2019-04-25T12:15:41.285Z,877.50
2019-04-25T12:16:41.252Z,860.63
2019-04-25T12:17:41.244Z,894.38
2019-04-25T12:18:41.234Z,933.75
2019-04-25T12:19:41.221Z,1018.13
2019-04-25T12:20:41.209Z,1080.00
2019-04-25T12:21:41.212Z,1119.38
2019-04-25T12:22:41.187Z,1198.13
2019-04-25T12:23:41.175Z,1136.25
2019-04-25T12:24:41.170Z,1164.38
2019-04-25T12:25:41.150Z,1085.63
2019-04-25T12:26:41.155Z,1001.25
2019-04-25T12:27:41.128Z,961.88
2019-04-25T12:28:41.118Z,961.88
2019-04-25T12:29:41.106Z,1018.13
2019-04-25T12:30:41.096Z,1085.63
2019-04-25T12:31:41.108Z,1164.38
2019-04-25T12:32:41.071Z,1147.50
2019-04-25T12:33:41.064Z,1125.00
2019-04-25T12:34:41.050Z,1119.38
2019-04-25T12:35:41.037Z,1096.88
2019-04-25T12:36:41.049Z,1068.75
2019-04-25T12:37:41.023Z,1006.88
2019-04-25T12:38:41.007Z,1018.13
2019-04-25T12:39:40.995Z,1096.88
2019-04-25T12:40:40.984Z,1186.88
2019-04-25T12:41:40.973Z,1215.00
2019-04-25T12:42:40.976Z,1198.13
2019-04-25T12:43:40.951Z,1130.63
2019-04-25T12:44:40.941Z,1102.50
2019-04-25T12:45:40.929Z,1113.75
2019-04-25T12:46:40.922Z,1136.25
2019-04-25T12:47:40.933Z,1141.88
2019-04-25T12:48:40.900Z,1119.38
2019-04-25T12:49:40.888Z,1147.50
2019-04-25T12:50:40.875Z,1220.63
2019-04-25T12:51:40.866Z,1338.75
2019-04-25T12:52:40.921Z,1293.75
2019-04-25T12:53:40.846Z,1355.63
2019-04-25T12:54:40.836Z,1546.88
2019-04-25T12:55:40.826Z,1558.13
2019-04-25T12:56:40.817Z,1333.13
2019-04-25T12:57:40.921Z,1080.00
2019-04-25T12:58:40.799Z,967.50
2019-04-25T12:59:40.791Z,961.88
2019-04-25T13:00:47.936Z,1029.38
2019-04-25T13:01:40.771Z,1125.00
2019-04-25T13:02:40.781Z,1288.13
2019-04-25T13:03:40.752Z,1361.25
2019-04-25T13:04:40.744Z,1535.63
2019-04-25T13:05:40.740Z,1665.00
2019-04-25T13:06:40.728Z,1743.75
2019-04-25T13:07:40.746Z,1456.88
2019-04-25T13:08:40.726Z,1428.75
2019-04-25T13:09:40.705Z,1591.88
2019-04-25T13:10:40.696Z,2086.88
2019-04-25T13:11:40.695Z,2351.25
2019-04-25T13:12:40.683Z,3813.75
2019-04-25T13:13:40.693Z,1485.00
2019-04-25T13:14:40.671Z,1462.50
2019-04-25T13:15:40.661Z,1451.25
2019-04-25T13:16:40.653Z,1822.50
2019-04-25T13:17:40.655Z,1833.75
2019-04-25T13:18:40.654Z,1501.88
2019-04-25T13:19:40.630Z,1400.63
2019-04-25T13:20:40.623Z,1440.00
2019-04-25T13:21:40.617Z,1411.88
2019-04-25T13:22:40.609Z,1428.75
2019-04-25T13:23:40.618Z,1456.88
2019-04-25T13:24:40.595Z,1473.75
2019-04-25T13:25:40.584Z,1670.63
2019-04-25T13:26:40.577Z,2109.38
2019-04-25T13:27:40.571Z,3183.75
2019-04-25T13:28:40.562Z,4500.00
2019-04-25T13:29:40.571Z,4854.38
2019-04-25T13:30:40.555Z,4303.13
2019-04-25T13:31:40.540Z,4303.13
2019-04-25T13:32:40.530Z,1805.63
2019-04-25T13:33:40.526Z,4646.25
2019-04-25T13:34:40.533Z,4876.88
2019-04-25T13:35:40.512Z,4893.75
2019-04-25T13:36:40.504Z,2418.75
2019-04-25T13:37:40.499Z,3566.25
2019-04-25T13:38:40.490Z,5782.50
2019-04-25T13:39:40.518Z,4381.88
2019-04-25T13:40:40.475Z,5298.75
2019-04-25T13:41:40.470Z,5310.00
2019-04-25T13:42:40.460Z,2795.63
2019-04-25T13:43:40.452Z,2711.25
2019-04-25T13:44:40.447Z,2610.00
2019-04-25T13:45:40.456Z,4888.13
2019-04-25T13:46:40.436Z,1310.63
2019-04-25T13:47:40.425Z,1293.75
2019-04-25T13:48:40.423Z,1226.25
2019-04-25T13:49:40.414Z,1186.88
2019-04-25T13:50:40.426Z,1153.13
2019-04-25T13:51:40.398Z,1310.63
2019-04-25T13:52:40.393Z,1198.13
2019-04-25T13:53:40.387Z,1327.50
2019-04-25T13:54:40.378Z,1473.75
2019-04-25T13:55:40.371Z,1800.00
2019-04-25T13:56:40.772Z,1771.88
2019-04-25T13:57:40.356Z,2272.50
2019-04-25T13:58:40.351Z,2863.13
2019-04-25T13:59:40.344Z,3211.88
2019-04-25T14:00:40.335Z,3043.13
2019-04-25T14:01:40.342Z,2761.88
2019-04-25T14:02:40.323Z,2525.63
2019-04-25T14:03:40.313Z,2373.75
2019-04-25T14:04:40.310Z,2430.00
2019-04-25T14:05:40.310Z,2570.63
2019-04-25T14:06:40.314Z,2655.00
2019-04-25T14:07:40.288Z,2733.75
2019-04-25T14:08:40.287Z,1355.63
2019-04-25T14:09:40.277Z,1321.88
2019-04-25T14:10:40.274Z,1344.38
2019-04-25T14:11:40.264Z,1293.75
2019-04-25T14:12:40.277Z,1198.13
2019-04-25T14:13:40.257Z,1080.00
2019-04-25T14:14:40.251Z,973.13
2019-04-25T14:15:40.243Z,922.50
2019-04-25T14:16:40.239Z,900.00
2019-04-25T14:17:40.266Z,894.38
2019-04-25T14:18:40.225Z,922.50
2019-04-25T14:19:40.217Z,1001.25
2019-04-25T14:20:40.211Z,956.25
2019-04-25T14:21:40.207Z,855.00
2019-04-25T14:22:40.209Z,770.63
2019-04-25T14:23:40.192Z,765.00
2019-04-25T14:24:40.181Z,798.75
2019-04-25T14:25:40.175Z,787.50
2019-04-25T14:26:40.167Z,742.50
2019-04-25T14:27:40.192Z,691.88
2019-04-25T14:28:40.151Z,658.13
2019-04-25T14:29:40.137Z,618.75
2019-04-25T14:30:40.129Z,613.13
2019-04-25T14:31:45.853Z,630.00
2019-04-25T14:32:40.112Z,658.13
2019-04-25T14:33:40.121Z,652.50
2019-04-25T14:34:40.096Z,624.38
2019-04-25T14:35:40.093Z,607.50
2019-04-25T14:36:40.074Z,613.13
2019-04-25T14:37:40.067Z,618.75
2019-04-25T14:38:40.985Z,601.88
2019-04-25T14:39:40.049Z,579.38
2019-04-25T14:40:42.177Z,568.13
2019-04-25T14:41:40.033Z,596.25
2019-04-25T14:42:40.017Z,635.63
2019-04-25T14:43:40.010Z,675.00
2019-04-25T14:44:40.018Z,686.25
2019-04-25T14:45:44.457Z,686.25
2019-04-25T14:46:39.978Z,691.88
2019-04-25T14:47:39.971Z,680.63
2019-04-25T14:48:39.957Z,658.13
2019-04-25T14:49:39.962Z,624.38
2019-04-25T14:50:39.940Z,556.88
2019-04-25T14:51:39.927Z,511.88
2019-04-25T14:52:40.763Z,472.50
2019-04-25T14:53:39.912Z,444.38
2019-04-25T14:54:39.913Z,444.38
2019-04-25T14:55:39.885Z,438.75
2019-04-25T14:56:39.874Z,438.75
2019-04-25T14:57:39.866Z,433.13
2019-04-25T14:58:39.855Z,399.38
2019-04-25T14:59:39.865Z,343.13
2019-04-25T15:00:39.833Z,309.38
2019-04-25T15:01:44.903Z,303.75
2019-04-25T15:02:40.749Z,298.13
2019-04-25T15:03:39.801Z,292.50
2019-04-25T15:04:39.791Z,303.75
2019-04-25T15:05:42.176Z,326.25
2019-04-25T15:06:39.769Z,365.63
2019-04-25T15:07:40.681Z,410.63
2019-04-25T15:08:39.747Z,466.88
2019-04-25T15:09:39.739Z,528.75
2019-04-25T15:10:39.761Z,601.88
2019-04-25T15:11:39.714Z,680.63
2019-04-25T15:12:39.700Z,731.25
2019-04-25T15:13:39.691Z,742.50
2019-04-25T15:14:39.678Z,770.63
2019-04-25T15:15:39.683Z,826.88
2019-04-25T15:16:39.660Z,916.88
2019-04-25T15:17:46.356Z,1164.38
2019-04-25T15:18:46.410Z,1631.25
2019-04-25T15:19:39.622Z,894.38
2019-04-25T15:20:39.630Z,804.38
2019-04-25T15:21:39.603Z,680.63
2019-04-25T15:22:39.591Z,624.38
2019-04-25T15:23:39.577Z,601.88
2019-04-25T15:24:39.569Z,607.50
2019-04-25T15:25:39.560Z,618.75
2019-04-25T15:26:40.427Z,635.63
2019-04-25T15:27:39.537Z,675.00
2019-04-25T15:28:39.529Z,720.00
2019-04-25T15:29:40.354Z,742.50
2019-04-25T15:30:39.509Z,753.75
2019-04-25T15:31:39.505Z,753.75
2019-04-25T15:32:39.481Z,742.50
2019-04-25T15:33:39.477Z,714.38
2019-04-25T15:34:39.464Z,663.75
2019-04-25T15:35:39.465Z,585.00
2019-04-25T15:36:39.452Z,551.25
2019-04-25T15:37:39.423Z,545.63
2019-04-25T15:38:39.414Z,540.00
2019-04-25T15:39:39.404Z,545.63
2019-04-25T15:40:41.141Z,579.38
2019-04-25T15:41:39.401Z,613.13
2019-04-25T15:42:39.370Z,618.75
2019-04-25T15:43:39.359Z,630.00
2019-04-25T15:44:39.347Z,658.13
2019-04-25T15:45:39.336Z,736.88
2019-04-25T15:46:39.327Z,793.13
2019-04-25T15:47:39.329Z,843.75
2019-04-25T15:48:39.301Z,821.25
2019-04-25T15:49:39.292Z,843.75
2019-04-25T15:50:39.292Z,703.13
2019-04-25T15:51:39.271Z,641.25
2019-04-25T15:52:39.276Z,624.38
2019-04-25T15:53:40.240Z,607.50
2019-04-25T15:54:39.237Z,573.75
2019-04-25T15:55:39.232Z,545.63
2019-04-25T15:56:39.211Z,511.88
2019-04-25T15:57:39.222Z,466.88
2019-04-25T15:58:39.191Z,427.50
2019-04-25T15:59:39.180Z,405.00
2019-04-25T16:00:39.168Z,399.38
2019-04-25T16:01:39.170Z,416.25
2019-04-25T16:02:39.147Z,421.88
2019-04-25T16:03:39.150Z,416.25
2019-04-25T16:04:39.122Z,427.50
2019-04-25T16:05:39.112Z,438.75
2019-04-25T16:06:39.101Z,478.13
2019-04-25T16:07:39.087Z,545.63
2019-04-25T16:08:39.088Z,798.75
2019-04-25T16:09:39.255Z,585.00
2019-04-25T16:10:39.050Z,585.00
2019-04-25T16:11:39.039Z,618.75
2019-04-25T16:12:39.032Z,624.38
2019-04-25T16:13:39.029Z,613.13
2019-04-25T16:14:39.032Z,663.75
2019-04-25T16:15:41.326Z,618.75
2019-04-25T16:16:38.982Z,568.13
2019-04-25T16:17:38.972Z,534.38
2019-04-25T16:18:38.960Z,528.75
2019-04-25T16:19:38.957Z,523.13
2019-04-25T16:20:38.935Z,523.13
2019-04-25T16:21:38.919Z,534.38
2019-04-25T16:22:38.916Z,551.25
2019-04-25T16:23:38.899Z,540.00
2019-04-25T16:24:38.902Z,534.38
2019-04-25T16:25:38.879Z,556.88
2019-04-25T16:26:38.863Z,601.88
2019-04-25T16:27:39.016Z,675.00
2019-04-25T16:28:38.837Z,669.38
2019-04-25T16:29:38.844Z,714.38
2019-04-25T16:30:38.814Z,607.50
2019-04-25T16:31:38.803Z,573.75
2019-04-25T16:32:38.790Z,568.13
2019-04-25T16:33:38.778Z,601.88
2019-04-25T16:34:38.767Z,652.50
2019-04-25T16:35:38.778Z,675.00
2019-04-25T16:36:39.535Z,708.75
2019-04-25T16:37:38.737Z,1845.00
2019-04-25T16:38:39.008Z,1957.50
2019-04-25T16:39:38.706Z,793.13
2019-04-25T16:40:38.713Z,849.38
2019-04-25T16:41:40.352Z,1850.63
2019-04-25T16:42:39.726Z,1951.88
2019-04-25T16:43:39.033Z,1186.88
2019-04-25T16:44:38.652Z,720.00
2019-04-25T16:45:38.654Z,641.25
2019-04-25T16:46:38.626Z,658.13
2019-04-25T16:47:38.616Z,686.25
2019-04-25T16:48:39.169Z,624.38
2019-04-25T16:49:39.143Z,624.38
2019-04-25T16:50:38.604Z,1001.25
2019-04-25T16:51:38.577Z,725.63
2019-04-25T16:52:38.583Z,720.00
2019-04-25T16:53:38.658Z,590.63
2019-04-25T16:54:38.541Z,483.75
2019-04-25T16:55:38.829Z,388.13
2019-04-25T16:56:38.530Z,309.38
2019-04-25T16:57:39.545Z,270.00
2019-04-25T16:58:38.693Z,258.75
2019-04-25T16:59:38.490Z,258.75
2019-04-25T17:00:38.495Z,247.50
2019-04-25T17:01:38.646Z,236.25
2019-04-25T17:02:40.838Z,247.50
2019-04-25T17:03:38.443Z,275.63
2019-04-25T17:04:38.439Z,309.38
2019-04-25T17:05:39.262Z,337.50
2019-04-25T17:06:38.422Z,348.75
2019-04-25T17:07:38.498Z,354.38
2019-04-25T17:08:38.387Z,371.25
2019-04-25T17:09:38.573Z,365.63
2019-04-25T17:10:39.443Z,348.75
2019-04-25T17:11:46.950Z,348.75
2019-04-25T17:12:38.559Z,354.38
2019-04-25T17:13:38.319Z,354.38
2019-04-25T17:14:38.305Z,343.13
2019-04-25T17:15:38.404Z,331.88
2019-04-25T17:16:39.124Z,315.00
2019-04-25T17:17:38.269Z,298.13
2019-04-25T17:18:38.320Z,270.00
2019-04-25T17:19:38.959Z,241.88
2019-04-25T17:20:38.227Z,225.00
2019-04-25T17:21:39.111Z,219.38
2019-04-25T17:22:38.211Z,213.75
2019-04-25T17:23:38.194Z,213.75
2019-04-25T17:24:39.222Z,208.13
2019-04-25T17:25:38.160Z,202.50
2019-04-25T17:26:38.168Z,191.25
2019-04-25T17:27:39.112Z,191.25
2019-04-25T17:28:39.072Z,191.25
2019-04-25T17:29:38.109Z,191.25
2019-04-25T17:30:38.095Z,180.00
2019-04-25T17:31:38.903Z,151.88
2019-04-25T17:32:50.295Z,129.38
2019-04-25T17:33:38.065Z,112.50
2019-04-25T17:34:38.878Z,101.25
2019-04-25T17:35:38.831Z,90.00
2019-04-25T17:36:38.649Z,84.38
2019-04-25T17:37:38.499Z,78.75
2019-04-25T17:38:37.985Z,73.13
2019-04-25T17:39:37.969Z,73.13
2019-04-25T17:40:37.970Z,67.50
2019-04-25T17:41:38.393Z,67.50
2019-04-25T17:42:38.905Z,61.88